Time;durP1;ratioP1;P1;durP2;ratioP2;P2;SDS_P1;SDS_P2;PMS_P1;PMS_P2;Temp;Humidity;BMP_temperature;BMP_pressure;BME280_temperature;BME280_humidity;BME280_pressure;Samples;Min_cycle;Max_cycle;Signal;HPM_P1;HPM_P2
2022/08/07 00:00:12;;;;;;;1.00;1.00;;;;;;;21.30;36.18;100238.09;4094820;28;20731;-65
2022/08/07 00:02:14;;;;;;;1.20;1.13;;;;;;;21.95;35.57;100209.09;4106116;28;20242;-68
2022/08/07 00:04:36;;;;;;;2.07;1.20;;;;;;;22.14;35.24;100199.13;4104043;28;20262;-65
2022/08/07 00:06:39;;;;;;;1.43;1.23;;;;;;;21.76;35.58;100229.88;4106463;28;20244;-66
2022/08/07 00:08:52;;;;;;;1.03;1.00;;;;;;;21.81;35.54;100235.47;4113335;28;20227;-62
2022/08/07 00:10:55;;;;;;;1.30;1.20;;;;;;;21.91;35.36;100233.91;4108032;28;20233;-63
2022/08/07 00:13:02;;;;;;;1.57;1.00;;;;;;;21.60;36.04;100231.25;4112838;28;20253;-63
2022/08/07 00:15:24;;;;;;;1.43;1.20;;;;;;;21.49;36.23;100230.06;4106096;28;20700;-63
2022/08/07 00:17:38;;;;;;;1.03;0.93;;;;;;;22.01;35.53;100203.59;4109206;28;20235;-63
2022/08/07 00:19:41;;;;;;;2.70;1.10;;;;;;;21.79;35.76;100226.75;4110523;28;20269;-63
2022/08/07 00:22:03;;;;;;;1.90;1.27;;;;;;;22.69;34.55;100212.66;4107647;28;20725;-63
2022/08/07 00:24:05;;;;;;;1.07;1.00;;;;;;;21.30;36.37;100240.81;4113000;28;20269;-63
2022/08/07 00:26:10;;;;;;;1.40;1.30;;;;;;;21.51;36.11;100230.66;4103190;28;20238;-64
2022/08/07 00:28:32;;;;;;;1.00;0.90;;;;;;;21.62;35.80;100238.06;4093906;28;21858;-63
2022/08/07 00:30:46;;;;;;;1.30;1.00;;;;;;;20.88;36.71;100256.59;4108056;28;20656;-63
2022/08/07 00:32:48;;;;;;;1.67;1.20;;;;;;;21.42;36.21;100211.19;4106756;28;20511;-63
2022/08/07 00:34:50;;;;;;;2.00;1.20;;;;;;;21.27;36.34;100218.78;4109940;28;20227;-63
2022/08/07 00:36:53;;;;;;;1.57;0.90;;;;;;;21.60;35.91;100205.00;4107638;28;20331;-63
2022/08/07 00:38:54;;;;;;;1.30;1.20;;;;;;;21.26;36.40;100211.69;4110108;28;20270;-63
2022/08/07 00:40:59;;;;;;;2.30;0.93;;;;;;;21.44;36.61;100203.66;4108171;28;20703;-62
2022/08/07 00:43:01;;;;;;;2.30;1.23;;;;;;;21.15;36.75;100213.25;4107932;28;20234;-62
2022/08/07 00:45:04;;;;;;;1.27;1.20;;;;;;;21.54;36.17;100190.50;4108357;28;20243;-62
2022/08/07 00:47:07;;;;;;;2.47;1.23;;;;;;;20.71;37.00;100213.03;4109653;28;20238;-63
2022/08/07 00:49:29;;;;;;;1.53;1.40;;;;;;;20.71;37.24;100213.03;4108975;28;20765;-62
2022/08/07 00:51:51;;;;;;;4.07;1.20;;;;;;;21.47;36.27;100181.59;4104632;28;20683;-62
2022/08/07 00:53:58;;;;;;;2.10;1.20;;;;;;;21.00;36.99;100197.31;4106403;28;20254;-63
2022/08/07 00:56:01;;;;;;;1.63;1.23;;;;;;;21.39;36.21;100189.16;4107849;28;20250;-63
2022/08/07 00:58:07;;;;;;;1.70;1.33;;;;;;;21.57;36.06;100189.22;4105838;28;20590;-63
2022/08/07 01:00:09;;;;;;;1.20;1.17;;;;;;;21.18;36.70;100196.59;4138737;28;20229;-62
2022/08/07 01:02:11;;;;;;;3.47;1.40;;;;;;;20.66;37.20;100228.25;4108058;28;20235;-63
2022/08/07 01:04:29;;;;;;;1.60;1.43;;;;;;;20.87;37.15;100214.44;4106941;28;20680;-63
2022/08/07 01:06:33;;;;;;;2.00;1.20;;;;;;;20.64;37.34;100235.72;4098039;28;20434;-62
2022/08/07 01:08:36;;;;;;;3.00;1.40;;;;;;;20.62;37.35;100235.94;4111164;28;20318;-63
2022/08/07 01:10:43;;;;;;;1.37;1.27;;;;;;;20.71;37.14;100228.41;4110665;28;20265;-64
2022/08/07 01:12:56;;;;;;;1.40;1.10;;;;;;;20.76;37.33;100217.81;4107530;28;20256;-62
2022/08/07 01:14:59;;;;;;;1.93;1.10;;;;;;;21.53;36.30;100182.59;4107757;28;20238;-62
2022/08/07 01:17:04;;;;;;;3.23;1.40;;;;;;;21.20;36.47;100197.19;4106848;28;20243;-62
2022/08/07 01:19:08;;;;;;;1.43;1.33;;;;;;;20.78;37.30;100221.09;4106845;28;20234;-65
2022/08/07 01:21:23;;;;;;;1.37;1.20;;;;;;;20.43;37.63;100245.75;4111548;28;20523;-62
2022/08/07 01:23:28;;;;;;;3.17;1.80;;;;;;;20.92;37.17;100194.84;4113736;28;20581;-63
2022/08/07 01:25:42;;;;;;;1.77;1.40;;;;;;;20.55;37.70;100216.22;4108118;28;20731;-62
2022/08/07 01:27:57;;;;;;;3.50;1.47;;;;;;;20.85;37.13;100202.97;4099122;28;20227;-62
2022/08/07 01:30:01;;;;;;;2.23;1.50;;;;;;;20.82;37.55;100198.03;4106283;28;20297;-63
2022/08/07 01:32:03;;;;;;;2.80;1.53;;;;;;;20.44;37.58;100237.44;4097256;28;20242;-62
2022/08/07 01:34:06;;;;;;;2.23;1.47;;;;;;;20.78;37.28;100215.69;4108307;28;20297;-63
2022/08/07 01:36:10;;;;;;;2.67;1.40;;;;;;;20.81;37.04;100215.28;4111897;28;20238;-63
2022/08/07 01:38:17;;;;;;;3.03;1.63;;;;;;;20.85;37.20;100215.66;4110230;28;20275;-63
2022/08/07 01:40:27;;;;;;;2.17;1.47;;;;;;;21.28;36.75;100196.09;4110777;28;20238;-62
2022/08/07 01:42:29;;;;;;;2.70;1.53;;;;;;;21.13;36.64;100231.56;4108980;28;20234;-63
2022/08/07 01:44:51;;;;;;;3.03;1.20;;;;;;;20.47;37.65;100244.31;4104769;28;20341;-63
2022/08/07 01:46:54;;;;;;;1.87;1.20;;;;;;;20.73;37.47;100220.94;4110857;28;20624;-63
2022/08/07 01:48:55;;;;;;;1.93;1.20;;;;;;;20.87;37.33;100208.16;4109146;28;20750;-63
2022/08/07 01:51:08;;;;;;;1.53;1.10;;;;;;;20.94;37.57;100192.78;4106165;28;20766;-62
2022/08/07 01:53:33;;;;;;;2.87;1.70;;;;;;;20.28;38.05;100239.78;4112316;28;20521;-63
2022/08/07 01:56:06;;;;;;;1.30;1.17;;;;;;;20.17;38.18;100254.72;4104522;28;20302;-62
2022/08/07 01:58:12;;;;;;;2.03;1.47;;;;;;;21.12;37.04;100192.03;4105128;28;20226;-61
2022/08/07 02:00:30;;;;;;;3.03;1.70;;;;;;;19.90;38.44;100256.63;4102807;28;20239;-62
2022/08/07 02:02:45;;;;;;;3.57;1.50;;;;;;;20.54;37.90;100218.09;4107335;28;20242;-61
2022/08/07 02:05:15;;;;;;;2.73;1.40;;;;;;;20.12;38.07;100238.34;4108454;28;20434;-62
2022/08/07 02:07:47;;;;;;;1.63;1.50;;;;;;;20.08;38.76;100221.72;4107479;28;20321;-62
2022/08/07 02:09:55;;;;;;;3.10;1.87;;;;;;;20.06;38.27;100219.25;4108895;28;20238;-62
2022/08/07 02:12:15;;;;;;;4.07;1.67;;;;;;;20.31;38.11;100198.84;4106655;28;20238;-62
2022/08/07 02:14:19;;;;;;;3.83;1.70;;;;;;;19.74;38.87;100220.94;4103912;28;20233;-62
2022/08/07 02:16:44;;;;;;;2.03;1.40;;;;;;;20.83;37.71;100180.75;4100679;28;20289;-62
2022/08/07 02:18:48;;;;;;;1.93;1.33;;;;;;;20.25;38.15;100190.53;4106798;28;20234;-62
2022/08/07 02:20:53;;;;;;;1.63;1.50;;;;;;;20.78;37.48;100167.88;4105699;28;20337;-63
2022/08/07 02:23:03;;;;;;;2.10;1.30;;;;;;;20.51;37.59;100204.19;4108174;28;20242;-62
2022/08/07 02:25:10;;;;;;;1.77;1.67;;;;;;;20.36;37.89;100202.56;4108068;28;20233;-63
2022/08/07 02:27:20;;;;;;;1.70;1.60;;;;;;;20.77;37.45;100174.34;4108291;28;20703;-62
2022/08/07 02:29:23;;;;;;;1.60;1.47;;;;;;;20.27;38.35;100203.03;4110530;28;20226;-62
2022/08/07 02:31:28;;;;;;;1.63;1.40;;;;;;;20.05;38.48;100224.84;4107439;28;20265;-61
2022/08/07 02:33:32;;;;;;;1.90;1.70;;;;;;;19.38;39.79;100218.59;4106600;28;20313;-62
2022/08/07 02:35:55;;;;;;;2.40;1.47;;;;;;;20.33;38.35;100165.22;4113440;28;20262;-61
2022/08/07 02:38:20;;;;;;;3.93;1.70;;;;;;;19.52;39.29;100195.97;4104409;28;20277;-62
2022/08/07 02:40:30;;;;;;;3.23;1.70;;;;;;;19.68;38.91;100198.31;4106844;28;20235;-62
2022/08/07 02:42:37;;;;;;;1.60;1.50;;;;;;;20.30;38.43;100170.19;4106158;28;20703;-62
2022/08/07 02:44:42;;;;;;;4.00;1.50;;;;;;;20.09;38.57;100158.59;4098349;28;20242;-63
2022/08/07 02:46:52;;;;;;;2.47;1.50;;;;;;;20.38;37.94;100178.03;4101242;28;20643;-62
2022/08/07 02:48:55;;;;;;;1.40;1.23;;;;;;;20.71;37.92;100163.56;4108070;28;20309;-63
2022/08/07 02:51:01;;;;;;;1.73;1.37;;;;;;;20.41;38.33;100181.16;4102269;28;20293;-62
2022/08/07 02:53:10;;;;;;;1.90;1.23;;;;;;;20.61;37.83;100154.03;4107801;28;20307;-63
2022/08/07 02:55:18;;;;;;;2.67;1.50;;;;;;;19.96;38.50;100209.91;4105973;28;20646;-62
2022/08/07 02:57:42;;;;;;;1.97;1.50;;;;;;;19.93;38.70;100204.94;4106856;28;20277;-62
2022/08/07 02:59:49;;;;;;;3.33;1.50;;;;;;;19.31;39.60;100199.72;4102666;28;20329;-63
2022/08/07 03:02:02;;;;;;;2.40;1.70;;;;;;;19.28;39.89;100203.66;4105629;28;20230;-63
2022/08/07 03:04:06;;;;;;;3.03;1.67;;;;;;;20.12;38.88;100143.84;4106414;28;20242;-63
2022/08/07 03:06:14;;;;;;;2.67;1.60;;;;;;;20.61;38.18;100128.91;4107490;28;20242;-63
2022/08/07 03:08:26;;;;;;;4.50;1.50;;;;;;;20.24;38.23;100182.63;4104816;28;20230;-62
2022/08/07 03:10:30;;;;;;;5.27;1.63;;;;;;;20.11;38.68;100161.94;4105721;28;20262;-62
2022/08/07 03:12:33;;;;;;;2.57;1.60;;;;;;;20.32;38.43;100141.94;4107921;28;20333;-62
2022/08/07 03:14:36;;;;;;;5.87;1.60;;;;;;;19.15;40.29;100203.66;4102868;28;20239;-62
2022/08/07 03:16:38;;;;;;;2.17;1.60;;;;;;;19.76;39.19;100169.44;4107542;28;20568;-62
2022/08/07 03:18:42;;;;;;;1.57;1.30;;;;;;;18.80;40.26;100233.38;4110176;28;20238;-62
2022/08/07 03:20:45;;;;;;;1.60;1.50;;;;;;;19.77;39.18;100154.94;4104258;28;20239;-62
2022/08/07 03:22:47;;;;;;;2.67;1.47;;;;;;;20.53;38.17;100139.97;4105895;28;20731;-62
2022/08/07 03:24:50;;;;;;;3.13;1.50;;;;;;;20.32;38.42;100155.44;4106212;28;20230;-62
2022/08/07 03:26:53;;;;;;;1.40;1.30;;;;;;;19.90;38.97;100175.69;4107701;28;20266;-62
2022/08/07 03:29:01;;;;;;;2.40;1.43;;;;;;;20.01;38.85;100183.97;4106939;28;20242;-62
2022/08/07 03:31:20;;;;;;;1.87;1.50;;;;;;;19.56;39.53;100193.75;4107535;28;20239;-63
2022/08/07 03:33:43;;;;;;;1.60;1.50;;;;;;;19.50;40.00;100181.88;4105285;28;20265;-62
2022/08/07 03:35:49;;;;;;;3.30;1.50;;;;;;;19.45;39.62;100182.53;4106591;28;20942;-62
2022/08/07 03:37:55;;;;;;;2.53;1.60;;;;;;;19.46;39.98;100170.69;4106704;28;20341;-63
2022/08/07 03:39:58;;;;;;;2.40;1.60;;;;;;;19.48;39.64;100194.75;4106082;28;20923;-63
2022/08/07 03:42:17;;;;;;;1.77;1.67;;;;;;;18.82;40.70;100206.25;4107524;28;20309;-62
2022/08/07 03:44:21;;;;;;;1.67;1.50;;;;;;;19.38;39.68;100187.06;4105436;28;20703;-62
2022/08/07 03:46:36;;;;;;;2.10;1.77;;;;;;;19.34;39.61;100202.00;4105366;28;20242;-62
2022/08/07 03:48:59;;;;;;;1.57;1.50;;;;;;;19.37;39.96;100209.69;4108349;28;20245;-63
2022/08/07 03:51:05;;;;;;;1.60;1.40;;;;;;;19.10;40.40;100206.09;4111346;28;20230;-62
2022/08/07 03:53:10;;;;;;;2.07;1.70;;;;;;;18.99;40.36;100206.72;4113723;28;20706;-63
2022/08/07 03:55:13;;;;;;;1.40;1.30;;;;;;;19.87;39.21;100175.03;4108153;28;20234;-62
2022/08/07 03:57:16;;;;;;;4.63;1.53;;;;;;;19.16;39.65;100245.72;4111900;28;20309;-62
2022/08/07 03:59:39;;;;;;;1.50;1.40;;;;;;;19.79;39.35;100187.91;4111651;28;20266;-63
2022/08/07 04:02:01;;;;;;;3.90;1.30;;;;;;;19.25;40.16;100208.63;4086753;28;20231;-62
2022/08/07 04:04:04;;;;;;;2.13;1.30;;;;;;;18.92;40.98;100195.94;4091863;28;20823;-63
2022/08/07 04:06:10;;;;;;;3.30;1.40;;;;;;;18.79;40.84;100220.91;4096336;28;20239;-62
2022/08/07 04:08:33;;;;;;;1.30;1.20;;;;;;;19.28;40.13;100189.34;4108920;28;20349;-63
2022/08/07 04:10:34;;;;;;;1.63;1.30;;;;;;;18.95;40.65;100182.88;4108761;28;20812;-62
2022/08/07 04:12:40;;;;;;;2.27;1.60;;;;;;;17.95;42.25;100211.13;4109160;28;20243;-62
2022/08/07 04:14:42;;;;;;;3.63;1.30;;;;;;;18.75;41.44;100158.53;4108531;28;20292;-62
2022/08/07 04:16:49;;;;;;;1.20;1.10;;;;;;;19.54;39.73;100171.50;4106507;28;20622;-62
2022/08/07 04:19:00;;;;;;;1.60;1.50;;;;;;;18.68;41.24;100227.72;4110102;28;20234;-62
2022/08/07 04:21:05;;;;;;;4.20;1.60;;;;;;;19.36;39.96;100181.06;4108474;28;20318;-61
2022/08/07 04:23:09;;;;;;;2.00;1.37;;;;;;;19.01;40.56;100205.47;4111241;28;20293;-61
2022/08/07 04:25:24;;;;;;;1.73;1.33;;;;;;;18.49;41.38;100236.53;4110505;28;20237;-62
2022/08/07 04:27:30;;;;;;;1.17;1.10;;;;;;;18.89;41.00;100215.19;4111563;28;20297;-62
2022/08/07 04:29:36;;;;;;;1.60;1.47;;;;;;;18.65;41.22;100230.00;4108579;28;20235;-62
2022/08/07 04:31:59;;;;;;;2.50;1.13;;;;;;;18.77;40.96;100215.72;4109983;28;20860;-62
2022/08/07 04:34:11;;;;;;;1.20;1.10;;;;;;;18.39;41.35;100243.13;4105625;28;20267;-61
2022/08/07 04:36:17;;;;;;;3.50;1.50;;;;;;;19.06;40.32;100208.38;4096270;28;20244;-63
2022/08/07 04:38:27;;;;;;;1.20;1.10;;;;;;;19.03;40.80;100197.19;4093854;28;20246;-61
2022/08/07 04:40:29;;;;;;;1.50;1.40;;;;;;;18.91;41.16;100215.81;4099881;28;20652;-61
2022/08/07 04:42:33;;;;;;;1.37;1.20;;;;;;;18.47;41.57;100257.44;4111058;28;20325;-61
2022/08/07 04:44:36;;;;;;;1.87;1.30;;;;;;;19.00;40.91;100202.97;4109176;28;20234;-62
2022/08/07 04:47:30;;;;;;;6.37;1.43;;;;;;;18.52;41.64;100253.13;4110563;28;20242;-64
2022/08/07 04:50:07;;;;;;;1.40;1.30;;;;;;;18.18;41.82;100251.28;4106102;28;20242;-61
2022/08/07 04:52:16;;;;;;;1.67;1.57;;;;;;;18.53;41.66;100253.97;4103959;28;20986;-62
2022/08/07 04:54:28;;;;;;;2.03;1.70;;;;;;;19.25;40.25;100204.09;4110033;28;20757;-62
2022/08/07 04:56:40;;;;;;;2.90;1.60;;;;;;;18.60;41.51;100227.91;4110593;28;20734;-63
2022/08/07 04:59:11;;;;;;;2.87;1.53;;;;;;;18.69;41.23;100234.75;4107095;28;20262;-61
2022/08/07 05:01:43;;;;;;;2.27;1.33;;;;;;;18.39;41.91;100244.97;4104612;28;20822;-62
2022/08/07 05:03:56;;;;;;;1.40;1.30;;;;;;;19.01;41.23;100199.25;4109590;28;20739;-62
2022/08/07 05:06:15;;;;;;;1.63;1.53;;;;;;;18.54;41.89;100247.53;4108178;28;20242;-62
2022/08/07 05:08:30;;;;;;;1.33;1.20;;;;;;;19.20;40.67;100213.81;4099384;28;20343;-62
2022/08/07 05:11:10;;;;;;;1.60;1.50;;;;;;;19.27;40.79;100225.44;4104836;28;20241;-62
2022/08/07 05:13:27;;;;;;;6.83;1.60;;;;;;;18.36;42.33;100262.38;4106917;28;20313;-63
2022/08/07 05:15:52;;;;;;;1.53;1.40;;;;;;;18.30;42.38;100255.06;4101085;28;20250;-62
2022/08/07 05:18:34;;;;;;;1.53;1.43;;;;;;;18.78;41.17;100241.66;4107687;28;20257;-63
2022/08/07 05:20:41;;;;;;;2.40;1.43;;;;;;;19.10;40.97;100238.44;4104657;28;20239;-63
2022/08/07 05:22:47;;;;;;;1.63;1.53;;;;;;;18.57;41.88;100258.72;4091897;28;20230;-63
2022/08/07 05:24:54;;;;;;;1.60;1.50;;;;;;;18.86;41.36;100234.44;4090993;28;20294;-62
2022/08/07 05:26:58;;;;;;;1.40;1.30;;;;;;;18.80;41.65;100246.84;4105248;28;20261;-61
2022/08/07 05:29:03;;;;;;;1.40;1.30;;;;;;;19.34;41.01;100223.59;4105787;28;20321;-61
2022/08/07 05:31:07;;;;;;;1.60;1.50;;;;;;;18.91;41.95;100235.53;4108798;28;20281;-62
2022/08/07 05:33:11;;;;;;;1.70;1.60;;;;;;;18.87;41.28;100268.44;4106416;28;20226;-61
2022/08/07 05:35:17;;;;;;;3.40;1.50;;;;;;;19.14;41.17;100253.19;4108305;28;20234;-61
2022/08/07 05:37:35;;;;;;;2.33;1.40;;;;;;;19.53;40.18;100273.19;4109597;28;20246;-64
2022/08/07 05:39:43;;;;;;;2.37;1.30;;;;;;;19.11;41.50;100281.38;4103781;28;20648;-61
2022/08/07 05:42:05;;;;;;;2.07;1.33;;;;;;;19.99;39.83;100250.81;4108273;28;20269;-62
2022/08/07 05:44:16;;;;;;;1.87;1.60;;;;;;;19.23;41.35;100283.47;4108606;28;20237;-64
2022/08/07 05:46:30;;;;;;;4.90;1.63;;;;;;;19.12;41.08;100282.22;4106211;28;20349;-62
2022/08/07 05:48:32;;;;;;;1.53;1.40;;;;;;;19.25;41.34;100276.03;4109134;28;20608;-62
2022/08/07 05:50:35;;;;;;;1.53;1.43;;;;;;;19.68;40.72;100244.16;4108200;28;20238;-62
2022/08/07 05:52:43;;;;;;;3.17;1.40;;;;;;;19.60;40.52;100284.81;4107789;28;20644;-62
2022/08/07 05:54:46;;;;;;;1.67;1.50;;;;;;;19.86;40.42;100257.03;4101235;28;20318;-62
2022/08/07 05:56:57;;;;;;;2.93;1.13;;;;;;;20.32;39.89;100231.03;4101842;28;20260;-63
2022/08/07 05:59:01;;;;;;;2.23;1.37;;;;;;;20.21;40.13;100248.72;4109340;28;20285;-62
2022/08/07 06:01:06;;;;;;;1.60;1.50;;;;;;;19.76;40.42;100293.56;4107822;28;20234;-62
2022/08/07 06:03:13;;;;;;;2.10;1.50;;;;;;;20.17;40.05;100260.13;4106057;28;20296;-61
2022/08/07 06:05:16;;;;;;;2.40;1.50;;;;;;;20.37;39.56;100292.53;4103415;28;20234;-63
2022/08/07 06:07:20;;;;;;;1.67;1.37;;;;;;;19.59;41.21;100318.25;4106166;28;20235;-62
2022/08/07 06:09:43;;;;;;;2.53;1.47;;;;;;;20.32;40.03;100295.03;4106594;28;20231;-62
2022/08/07 06:12:06;;;;;;;3.17;1.20;;;;;;;20.34;40.30;100290.25;4107215;28;20258;-62
2022/08/07 06:14:08;;;;;;;3.03;1.50;;;;;;;20.57;39.70;100274.41;4106769;28;20242;-62
2022/08/07 06:16:15;;;;;;;1.43;1.13;;;;;;;20.32;40.15;100335.53;4107904;28;20317;-61
2022/08/07 06:18:17;;;;;;;2.80;1.40;;;;;;;20.71;39.56;100290.56;4106909;28;20707;-63
2022/08/07 06:20:19;;;;;;;2.73;1.30;;;;;;;20.52;39.74;100317.44;4099096;28;20766;-62
2022/08/07 06:22:34;;;;;;;1.57;1.37;;;;;;;20.26;39.76;100337.19;4087935;28;20227;-62
2022/08/07 06:24:40;;;;;;;1.33;1.00;;;;;;;20.57;39.65;100323.03;4091041;28;20273;-61
2022/08/07 06:26:57;;;;;;;4.00;1.77;;;;;;;20.37;40.19;100297.94;4090140;28;20271;-62
2022/08/07 06:29:04;;;;;;;1.40;1.30;;;;;;;20.93;39.54;100272.19;4092225;28;20243;-63
2022/08/07 06:31:07;;;;;;;1.80;1.50;;;;;;;20.43;40.11;100307.88;4090642;28;20232;-62
2022/08/07 06:33:08;;;;;;;3.13;1.20;;;;;;;20.92;39.54;100275.91;4104017;28;20290;-62
2022/08/07 06:35:16;;;;;;;1.40;1.30;;;;;;;20.73;39.80;100305.50;4107927;28;20238;-62
2022/08/07 06:37:18;;;;;;;5.70;1.70;;;;;;;21.25;39.13;100283.91;4107081;28;20655;-62
2022/08/07 06:39:40;;;;;;;3.70;1.50;;;;;;;20.32;39.71;100355.25;4106850;28;20495;-63
2022/08/07 06:42:08;;;;;;;1.77;1.53;;;;;;;21.16;39.11;100302.25;4103389;28;20258;-63
2022/08/07 06:44:12;;;;;;;2.40;1.40;;;;;;;20.66;40.23;100341.72;4087857;28;20241;-64
2022/08/07 06:46:16;;;;;;;3.67;1.70;;;;;;;21.25;39.51;100285.78;4096287;28;20238;-63
2022/08/07 06:48:32;;;;;;;1.27;1.10;;;;;;;21.33;39.28;100296.34;4107087;28;20250;-61
2022/08/07 06:50:37;;;;;;;2.83;1.30;;;;;;;20.83;39.56;100342.09;4107733;28;20231;-61
2022/08/07 06:52:48;;;;;;;2.07;1.50;;;;;;;21.26;39.66;100296.38;4108325;28;20538;-62
2022/08/07 06:54:55;;;;;;;2.23;1.30;;;;;;;21.79;38.87;100270.88;4108393;28;20238;-61
2022/08/07 06:57:19;;;;;;;2.53;1.60;;;;;;;21.07;39.67;100338.69;4106489;28;20327;-63
2022/08/07 06:59:41;;;;;;;2.33;1.50;;;;;;;21.29;39.33;100335.69;4109888;28;20238;-63
2022/08/07 07:02:05;;;;;;;3.27;1.50;;;;;;;21.48;39.08;100302.28;4111554;28;20245;-63
2022/08/07 07:04:12;;;;;;;1.87;1.40;;;;;;;20.99;40.15;100331.66;4107915;28;20320;-62
2022/08/07 07:06:33;;;;;;;2.67;1.60;;;;;;;21.09;39.93;100335.78;4102971;28;20252;-62
2022/08/07 07:08:55;;;;;;;3.93;1.30;;;;;;;21.75;39.23;100288.59;4107388;28;20775;-63
2022/08/07 07:10:58;;;;;;;6.07;1.60;;;;;;;21.70;39.67;100283.84;4106217;28;20230;-63
2022/08/07 07:13:17;;;;;;;2.83;1.30;;;;;;;22.39;38.72;100273.06;4104346;28;20260;-63
2022/08/07 07:15:44;;;;;;;1.27;1.13;;;;;;;21.47;39.55;100349.31;4106385;28;20281;-62
2022/08/07 07:17:56;;;;;;;3.70;1.80;;;;;;;21.67;39.92;100302.41;4108828;28;20230;-62
2022/08/07 07:20:01;;;;;;;3.63;1.87;;;;;;;21.68;40.20;100313.00;4111415;28;20238;-62
2022/08/07 07:22:03;;;;;;;2.70;1.60;;;;;;;22.31;39.48;100295.00;4113589;28;20229;-62
2022/08/07 07:24:25;;;;;;;3.10;1.80;;;;;;;22.10;39.66;100309.75;4110340;28;20738;-62
2022/08/07 07:26:32;;;;;;;1.77;1.40;;;;;;;22.02;39.95;100300.03;4108282;28;20304;-62
2022/08/07 07:28:45;;;;;;;1.73;1.40;;;;;;;22.26;39.52;100298.34;4110953;28;20237;-63
2022/08/07 07:31:43;;;;;;;2.00;1.80;;;;;;;22.40;39.30;100301.78;4110250;28;20288;-64
2022/08/07 07:33:53;;;;;;;4.27;1.70;;;;;;;22.19;40.32;100313.03;4096963;28;20234;-63
2022/08/07 07:35:59;;;;;;;2.07;1.87;;;;;;;21.54;40.92;100365.50;4106991;28;20230;-63
2022/08/07 07:38:16;;;;;;;3.13;1.83;;;;;;;21.96;40.08;100319.06;4109480;28;20246;-62
2022/08/07 07:40:20;;;;;;;6.03;1.87;;;;;;;22.03;40.81;100288.13;4107105;28;21111;-63
2022/08/07 07:42:26;;;;;;;2.30;1.77;;;;;;;22.17;40.69;100296.16;4103430;28;20274;-62
2022/08/07 07:44:37;;;;;;;4.00;1.87;;;;;;;22.56;40.20;100284.13;4109372;28;20233;-63
2022/08/07 07:46:41;;;;;;;3.97;1.80;;;;;;;22.31;40.87;100313.97;4109561;28;20249;-62
2022/08/07 07:48:59;;;;;;;3.53;1.97;;;;;;;22.45;40.61;100301.94;4112959;28;20707;-62
2022/08/07 07:51:22;;;;;;;2.43;1.80;;;;;;;22.79;40.57;100293.44;4119895;28;20275;-62
2022/08/07 07:53:26;;;;;;;2.57;1.77;;;;;;;22.73;40.76;100284.34;4122830;28;20230;-62
2022/08/07 07:55:30;;;;;;;2.83;2.00;;;;;;;23.37;39.90;100275.81;4108917;28;20653;-62
2022/08/07 07:57:39;;;;;;;3.47;1.90;;;;;;;22.92;40.32;100309.56;4107483;28;20245;-64
2022/08/07 07:59:55;;;;;;;1.90;1.70;;;;;;;22.54;40.97;100329.59;4109824;28;20242;-62
2022/08/07 08:02:01;;;;;;;5.93;2.07;;;;;;;23.28;39.86;100298.88;4107254;28;20273;-61
2022/08/07 08:04:12;;;;;;;2.60;1.87;;;;;;;23.15;40.20;100308.06;4109552;28;20227;-62
2022/08/07 08:06:16;;;;;;;4.47;2.10;;;;;;;23.10;40.35;100291.63;4101992;28;20576;-62
2022/08/07 08:08:18;;;;;;;5.80;2.13;;;;;;;23.34;40.03;100301.50;4111059;28;20235;-61
2022/08/07 08:10:38;;;;;;;1.70;1.60;;;;;;;23.56;39.83;100295.59;4106651;28;20240;-62
2022/08/07 08:12:40;;;;;;;3.57;1.73;;;;;;;23.63;39.83;100301.75;4107482;28;20785;-62
2022/08/07 08:15:00;;;;;;;6.90;1.97;;;;;;;23.72;39.77;100292.22;4114713;28;20250;-62
2022/08/07 08:17:11;;;;;;;2.67;1.50;;;;;;;23.15;40.58;100322.44;4110067;28;20631;-62
2022/08/07 08:19:34;;;;;;;3.83;1.63;;;;;;;24.09;39.25;100289.31;4107626;28;20325;-62
2022/08/07 08:27:37;;;;;;;3.17;1.70;;;;;;;23.26;40.67;100309.97;4103559;28;20314;-62
2022/08/07 08:29:56;;;;;;;7.00;1.83;;;;;;;23.83;40.25;100282.41;4085555;28;20249;-62
2022/08/07 08:32:02;;;;;;;3.60;1.70;;;;;;;23.59;40.12;100306.00;4091072;28;20239;-62
2022/08/07 08:34:22;;;;;;;3.05;1.55;;;;;;;24.22;39.65;100277.38;4095618;28;20844;-62
2022/08/07 08:36:32;;;;;;;2.07;1.57;;;;;;;24.24;39.35;100290.72;4107592;28;20277;-63
2022/08/07 08:38:37;;;;;;;4.27;1.87;;;;;;;24.04;39.29;100300.03;4123323;28;20632;-62
2022/08/07 08:40:48;;;;;;;1.85;1.60;;;;;;;23.94;40.12;100307.94;4109860;28;20856;-62
2022/08/07 08:42:56;;;;;;;2.13;1.80;;;;;;;24.15;39.65;100276.66;4106118;28;20525;-63
2022/08/07 08:45:07;;;;;;;1.98;1.77;;;;;;;24.16;39.71;100288.34;4108148;28;20238;-63
2022/08/07 08:47:33;;;;;;;2.55;1.60;;;;;;;23.54;40.21;100341.13;4112900;28;20481;-62
2022/08/07 08:50:16;;;;;;;2.35;1.80;;;;;;;24.52;39.26;100270.16;4108437;28;20725;-63
2022/08/07 08:52:35;;;;;;;2.60;1.60;;;;;;;24.66;39.38;100296.81;4105815;28;20226;-62
2022/08/07 08:55:10;;;;;;;2.20;1.80;;;;;;;24.36;39.66;100315.19;4105633;28;20234;-63
2022/08/07 08:57:41;;;;;;;6.78;1.70;;;;;;;24.80;39.05;100277.53;4110889;28;20257;-63
2022/08/07 08:59:55;;;;;;;2.15;1.70;;;;;;;24.47;39.62;100295.31;4107214;28;20230;-63
2022/08/07 09:02:35;;;;;;;1.63;1.50;;;;;;;25.34;38.70;100264.44;4104317;28;20639;-62
2022/08/07 09:05:12;;;;;;;3.85;2.08;;;;;;;25.33;38.09;100298.16;4105020;28;20230;-61
2022/08/07 09:07:30;;;;;;;1.95;1.60;;;;;;;24.82;38.87;100302.63;4107104;28;20234;-63
2022/08/07 09:10:16;;;;;;;2.08;1.40;;;;;;;25.11;38.65;100305.38;4096184;28;20293;-63
2022/08/07 09:12:43;;;;;;;2.33;1.52;;;;;;;25.16;38.22;100310.91;4094847;28;20273;-63
2022/08/07 09:15:09;;;;;;;3.78;1.42;;;;;;;25.26;38.46;100307.56;4095521;28;20440;-63
2022/08/07 09:17:58;;;;;;;3.15;1.60;;;;;;;24.74;38.91;100328.25;4105905;28;20347;-62
2022/08/07 09:20:53;;;;;;;2.13;1.58;;;;;;;24.98;38.83;100301.84;4107979;28;20231;-63
2022/08/07 09:23:12;;;;;;;2.17;1.58;;;;;;;25.42;38.33;100304.06;4103980;28;20235;-62
2022/08/07 09:26:00;;;;;;;3.78;1.70;;;;;;;25.18;38.56;100300.59;4112439;28;20261;-62
2022/08/07 09:28:07;;;;;;;1.90;1.75;;;;;;;25.24;38.00;100303.19;4094833;28;20290;-61
2022/08/07 09:30:44;;;;;;;2.60;1.63;;;;;;;25.69;37.73;100287.09;4100148;28;20261;-62
2022/08/07 09:33:27;;;;;;;2.03;1.75;;;;;;;26.58;36.64;100280.84;4091444;28;20226;-62
2022/08/07 09:36:05;;;;;;;2.53;1.60;;;;;;;25.94;37.42;100324.88;4087193;28;20794;-63
2022/08/07 09:38:10;;;;;;;2.92;1.77;;;;;;;26.17;37.03;100318.41;4090896;28;20249;-62
2022/08/07 09:40:51;;;;;;;1.92;1.40;;;;;;;25.94;37.69;100314.78;4094615;28;20242;-63
2022/08/07 09:42:59;;;;;;;2.42;1.50;;;;;;;26.21;36.64;100308.66;4090285;28;20356;-63
2022/08/07 09:45:14;;;;;;;1.70;1.60;;;;;;;25.64;37.27;100319.69;4105102;28;21032;-62
2022/08/07 09:47:48;;;;;;;2.00;1.58;;;;;;;25.86;37.16;100317.06;4107699;28;20699;-62
2022/08/07 09:50:16;;;;;;;1.85;1.65;;;;;;;26.08;36.69;100309.84;4106514;28;20286;-62
2022/08/07 09:52:39;;;;;;;2.70;1.63;;;;;;;25.95;36.43;100318.34;4105945;28;20723;-62
2022/08/07 09:54:53;;;;;;;2.95;1.60;;;;;;;26.84;36.35;100278.41;4106324;28;20296;-62
2022/08/07 09:56:57;;;;;;;2.70;1.90;;;;;;;26.39;36.55;100304.81;4106025;28;20333;-62
2022/08/07 09:59:38;;;;;;;4.30;1.70;;;;;;;26.82;36.07;100262.28;4107387;28;20761;-62
2022/08/07 10:02:11;;;;;;;3.72;1.60;;;;;;;26.84;36.06;100276.53;4102328;28;20264;-61
2022/08/07 10:04:23;;;;;;;1.60;1.50;;;;;;;26.31;36.43;100284.25;4093993;28;20242;-63
2022/08/07 10:07:01;;;;;;;2.97;1.70;;;;;;;26.68;36.41;100278.25;4094623;28;20235;-62
2022/08/07 10:09:18;;;;;;;7.60;2.08;;;;;;;26.76;35.79;100281.59;4093301;28;20227;-62
2022/08/07 10:12:05;;;;;;;2.90;1.95;;;;;;;27.09;35.70;100267.00;4106266;28;20230;-62
2022/08/07 10:14:23;;;;;;;2.65;1.63;;;;;;;26.81;36.04;100273.50;4094350;28;20301;-62
2022/08/07 10:16:51;;;;;;;2.58;2.05;;;;;;;26.06;36.70;100298.34;4099398;28;20770;-61
2022/08/07 10:19:17;;;;;;;2.42;2.22;;;;;;;26.92;36.32;100236.22;4109217;28;20231;-63
2022/08/07 10:21:31;;;;;;;4.32;2.33;;;;;;;27.18;35.28;100250.97;4106034;28;20238;-63
2022/08/07 10:24:12;;;;;;;3.63;3.17;;;;;;;26.31;36.00;100276.09;4108509;28;20297;-62